Brownfield, Maine
Current Conditions -  °F | °C
As of 12:54 AM on Tuesday 27 Jan 2015 (Local Time) from KIZG Reporting Station
Overcast Overcast  
Wind Chill:   Ceiling: 5000
Heat Index: 14°   Visibility: 10mi
Dew Point: -8°   Wind: 8mph
Humidity: 37%   Direction: 20°NNE
Pressure: 30"   Gusts: NA
Location:  43.94°N, 70.91°W
Report Text: KIZG 270554Z AUTO 02007KT 10SM OVC050 M10/M22 A3000 RMK AO2 SLP169 T11001222 11089 21100 58041
Loading
Personal Weather Stations






























Interactive Weather Map New forecast layout! Learn more

10-Day Weather Forecast

Advertisements
Track Severe Weather on mobile